createdAt,value
2017-03-20T00:00:03.527Z,1001.79
2017-03-20T00:00:44.049Z,1001.82
2017-03-20T00:01:24.516Z,1001.85
2017-03-20T00:02:05.046Z,1001.74
2017-03-20T00:02:45.555Z,1001.78
2017-03-20T00:03:26.033Z,1001.81
2017-03-20T00:04:06.525Z,1001.75
2017-03-20T00:04:47.020Z,1001.83
2017-03-20T00:05:27.519Z,1001.78
2017-03-20T00:06:08.001Z,1001.79
2017-03-20T00:06:48.485Z,1001.88
2017-03-20T00:07:28.986Z,1001.8
2017-03-20T00:08:09.476Z,1001.83
2017-03-20T00:08:49.971Z,1001.81
2017-03-20T00:09:30.452Z,1001.89
2017-03-20T00:10:10.941Z,1001.85
2017-03-20T00:10:51.478Z,1001.87
2017-03-20T00:11:31.940Z,1001.82
2017-03-20T00:12:12.440Z,1001.84
2017-03-20T00:12:52.936Z,1001.84
2017-03-20T00:13:33.381Z,1001.91
2017-03-20T00:14:13.885Z,1001.86
2017-03-20T00:14:54.384Z,1001.71
2017-03-20T00:15:34.860Z,1001.93
2017-03-20T00:16:15.337Z,1001.86
2017-03-20T00:16:55.833Z,1001.86
2017-03-20T00:17:36.364Z,1001.9
2017-03-20T00:18:16.870Z,1001.78
2017-03-20T00:18:57.361Z,1001.83
2017-03-20T00:19:37.837Z,1001.85
2017-03-20T00:20:18.325Z,1001.84
2017-03-20T00:20:58.841Z,1001.8
2017-03-20T00:21:39.313Z,1001.9
2017-03-20T00:22:19.792Z,1001.77
2017-03-20T00:23:00.266Z,1001.89
2017-03-20T00:23:40.796Z,1001.79
2017-03-20T00:24:21.282Z,1001.75
2017-03-20T00:25:01.747Z,1001.69
2017-03-20T00:25:42.266Z,1001.73
2017-03-20T00:26:22.746Z,1001.71
2017-03-20T00:27:03.239Z,1001.62
2017-03-20T00:27:43.705Z,1001.62
2017-03-20T00:28:24.222Z,1001.57
2017-03-20T00:29:04.766Z,1001.59
2017-03-20T00:29:45.258Z,1001.55
2017-03-20T00:30:25.733Z,1001.55
2017-03-20T00:31:06.214Z,1001.57
2017-03-20T00:31:46.805Z,1001.58
2017-03-20T00:32:27.283Z,1001.62
2017-03-20T00:33:07.798Z,1001.55
2017-03-20T00:33:48.323Z,1001.55
2017-03-20T00:34:28.767Z,1001.6
2017-03-20T00:35:09.230Z,1001.61
2017-03-20T00:35:49.776Z,1001.6
2017-03-20T00:36:30.287Z,1001.61
2017-03-20T00:37:10.761Z,1001.65
2017-03-20T00:37:51.254Z,1001.67
2017-03-20T00:38:31.789Z,1001.7
2017-03-20T00:39:12.301Z,1001.68
2017-03-20T00:39:52.802Z,1001.69
2017-03-20T00:40:33.296Z,1001.71
2017-03-20T00:41:13.770Z,1001.77
2017-03-20T00:41:54.249Z,1001.79
2017-03-20T00:42:34.781Z,1001.88
2017-03-20T00:43:15.268Z,1001.88
2017-03-20T00:43:55.797Z,1001.84
2017-03-20T00:44:36.281Z,1001.87
2017-03-20T00:45:16.772Z,1001.86
2017-03-20T00:45:57.231Z,1001.83
2017-03-20T00:46:37.714Z,1001.88
2017-03-20T00:47:18.250Z,1001.96
2017-03-20T00:47:58.698Z,1001.87
2017-03-20T00:48:39.190Z,1001.93
2017-03-20T00:49:19.696Z,1001.96
2017-03-20T00:50:00.208Z,1001.95
2017-03-20T00:50:40.668Z,1001.99
2017-03-20T00:51:21.171Z,1002.01
2017-03-20T00:52:01.646Z,1002.02
2017-03-20T00:52:42.145Z,1002.05
2017-03-20T00:53:22.616Z,1002.08
2017-03-20T00:54:03.113Z,1002.07
2017-03-20T00:54:43.604Z,1002.14
2017-03-20T00:55:24.079Z,1002.1
2017-03-20T00:56:04.557Z,1002.1
2017-03-20T00:56:45.023Z,1002.1
2017-03-20T00:57:25.526Z,1002.1
2017-03-20T00:58:06.026Z,1002.13
2017-03-20T00:58:46.521Z,1002.14
2017-03-20T00:59:26.986Z,1002.17
2017-03-20T01:00:07.484Z,1002.18
2017-03-20T01:00:47.977Z,1002.15
2017-03-20T01:01:28.479Z,1002.15
2017-03-20T01:02:08.942Z,1002.19
2017-03-20T01:02:49.409Z,1002.23
2017-03-20T01:03:29.969Z,1002.19
2017-03-20T01:04:10.467Z,1002.14
2017-03-20T01:04:50.953Z,1002.21
2017-03-20T01:05:31.419Z,1002.2
2017-03-20T01:06:11.921Z,1002.25
2017-03-20T01:06:52.372Z,1002.2
2017-03-20T01:07:32.897Z,1002.14
2017-03-20T01:08:13.396Z,1002.22
2017-03-20T01:08:53.908Z,1002.14
2017-03-20T01:09:34.365Z,1002.15
2017-03-20T01:10:14.860Z,1002.18
2017-03-20T01:10:55.392Z,1002.19
2017-03-20T01:11:35.851Z,1002.16
2017-03-20T01:12:16.330Z,1002.23
2017-03-20T01:12:56.821Z,1002.22
2017-03-20T01:13:37.356Z,1002.19
2017-03-20T01:14:17.825Z,1002.22
2017-03-20T01:14:58.282Z,1002.24
2017-03-20T01:15:38.805Z,1002.21
2017-03-20T01:16:19.285Z,1002.21
2017-03-20T01:16:59.788Z,1002.24
2017-03-20T01:17:40.251Z,1002.25
2017-03-20T01:18:20.708Z,1002.27
2017-03-20T01:19:01.253Z,1002.2
2017-03-20T01:19:41.727Z,1002.26
2017-03-20T01:20:22.423Z,1002.38
2017-03-20T01:21:02.813Z,1002.21
2017-03-20T01:21:43.277Z,1002.19
2017-03-20T01:22:23.776Z,1002.19
2017-03-20T01:23:04.240Z,1002.22
2017-03-20T01:23:44.746Z,1002.22
2017-03-20T01:24:25.214Z,1002.24
2017-03-20T01:25:05.719Z,1002.22
2017-03-20T01:25:46.208Z,1002.37
2017-03-20T01:26:26.698Z,1002.17
2017-03-20T01:27:07.198Z,1002.33
2017-03-20T01:27:47.667Z,1002.28
2017-03-20T01:28:28.139Z,1002.27
2017-03-20T01:29:08.618Z,1002.27
2017-03-20T01:29:49.111Z,1002.24
2017-03-20T01:30:29.559Z,1002.23
2017-03-20T01:31:10.057Z,1002.27
2017-03-20T01:31:50.555Z,1002.22
2017-03-20T01:32:31.031Z,1002.22
2017-03-20T01:33:11.578Z,1002.33
2017-03-20T01:33:52.023Z,1002.26
2017-03-20T01:34:32.638Z,1002.21
2017-03-20T01:35:13.138Z,1002.24
2017-03-20T01:35:53.674Z,1002.38
2017-03-20T01:36:34.186Z,1002.37
2017-03-20T01:37:14.645Z,1002.36
2017-03-20T01:37:55.143Z,1002.58
2017-03-20T01:38:35.637Z,1002.51
2017-03-20T01:39:16.099Z,1002.48
2017-03-20T01:39:56.594Z,1002.41
2017-03-20T01:40:37.094Z,1002.48
2017-03-20T01:41:17.611Z,1002.55
2017-03-20T01:41:58.102Z,1002.54
2017-03-20T01:42:38.604Z,1002.63
2017-03-20T01:43:19.134Z,1002.59
2017-03-20T01:43:59.593Z,1002.56
2017-03-20T01:44:40.068Z,1002.58
2017-03-20T01:45:20.591Z,1002.57
2017-03-20T01:46:01.083Z,1002.57
2017-03-20T01:46:41.582Z,1002.55
2017-03-20T01:47:22.123Z,1002.52
2017-03-20T01:48:02.595Z,1002.56
2017-03-20T01:48:43.094Z,1002.54
2017-03-20T01:49:23.598Z,1002.61
2017-03-20T01:50:04.094Z,1002.61
2017-03-20T01:50:44.564Z,1002.61
2017-03-20T01:51:25.081Z,1002.67
2017-03-20T01:52:05.540Z,1002.56
2017-03-20T01:52:46.032Z,1002.65
2017-03-20T01:53:26.570Z,1002.56
2017-03-20T01:54:07.040Z,1002.55
2017-03-20T01:54:47.538Z,1002.57
2017-03-20T01:55:28.060Z,1002.55
2017-03-20T01:56:08.547Z,1002.5
2017-03-20T01:56:49.048Z,1002.48
2017-03-20T01:57:29.539Z,1002.42
2017-03-20T01:58:10.019Z,1002.45
2017-03-20T01:58:50.506Z,1002.43
2017-03-20T02:01:03.733Z,1002.54
2017-03-20T02:01:44.139Z,1002.57
2017-03-20T02:02:24.637Z,1002.58
2017-03-20T02:03:05.131Z,1002.55
2017-03-20T02:03:45.687Z,1002.56
2017-03-20T02:04:26.159Z,1002.52
2017-03-20T02:05:06.698Z,1002.43
2017-03-20T02:05:47.160Z,1002.52
2017-03-20T02:06:27.687Z,1002.53
2017-03-20T02:07:08.123Z,1002.54
2017-03-20T02:07:48.618Z,1002.57
2017-03-20T02:08:29.119Z,1002.59
2017-03-20T02:09:09.627Z,1002.61
2017-03-20T02:09:50.116Z,1002.64
2017-03-20T02:10:30.667Z,1002.6
2017-03-20T02:11:11.156Z,1002.61
2017-03-20T02:11:51.636Z,1002.57
2017-03-20T02:12:32.151Z,1002.62
2017-03-20T02:13:12.664Z,1002.61
2017-03-20T02:13:53.172Z,1002.6
2017-03-20T02:14:33.666Z,1002.6
2017-03-20T02:15:14.178Z,1002.62
2017-03-20T02:15:54.669Z,1002.65
2017-03-20T02:16:35.156Z,1002.63
2017-03-20T02:17:15.727Z,1002.65
2017-03-20T02:17:56.218Z,1002.65
2017-03-20T02:18:36.701Z,1002.61
2017-03-20T02:19:17.192Z,1002.64
2017-03-20T02:19:57.673Z,1002.66
2017-03-20T02:20:38.182Z,1002.63
2017-03-20T02:21:18.658Z,1002.55
2017-03-20T02:21:59.197Z,1002.52
2017-03-20T02:22:39.689Z,1002.57
2017-03-20T02:23:20.169Z,1002.53
2017-03-20T02:24:00.654Z,1002.56
2017-03-20T02:24:41.172Z,1002.49
2017-03-20T02:25:21.635Z,1002.56
2017-03-20T02:26:02.130Z,1002.57
2017-03-20T02:26:42.649Z,1002.63
2017-03-20T02:27:23.143Z,1002.58
2017-03-20T02:28:03.626Z,1002.62
2017-03-20T02:28:44.097Z,1002.63
2017-03-20T02:29:24.595Z,1002.62
2017-03-20T02:30:05.071Z,1002.57
2017-03-20T02:30:45.569Z,1002.53
2017-03-20T02:31:26.062Z,1002.56
2017-03-20T02:32:06.532Z,1002.53
2017-03-20T02:32:47.035Z,1002.54
2017-03-20T02:33:27.515Z,1002.54
2017-03-20T02:34:08.024Z,1002.48
2017-03-20T02:34:48.465Z,1002.49
2017-03-20T02:35:28.959Z,1002.5
2017-03-20T02:36:09.442Z,1002.53
2017-03-20T02:36:49.922Z,1002.49
2017-03-20T02:37:30.418Z,1002.49
2017-03-20T02:38:10.923Z,1002.47
2017-03-20T02:38:51.389Z,1002.53
2017-03-20T02:39:31.895Z,1002.44
2017-03-20T02:40:12.373Z,1002.43
2017-03-20T02:40:52.899Z,1002.4
2017-03-20T02:41:33.356Z,1002.47
2017-03-20T02:42:13.818Z,1002.51
2017-03-20T02:42:54.317Z,1002.5
2017-03-20T02:43:34.808Z,1002.51
2017-03-20T02:44:15.264Z,1002.53
2017-03-20T02:44:55.831Z,1002.59
2017-03-20T02:45:36.279Z,1002.56
2017-03-20T02:46:16.777Z,1002.56
2017-03-20T02:46:57.268Z,1002.6
2017-03-20T02:47:37.776Z,1002.59
2017-03-20T02:48:18.269Z,1002.6
2017-03-20T02:48:58.774Z,1002.61
2017-03-20T02:49:39.296Z,1002.6
2017-03-20T02:50:19.776Z,1002.54
2017-03-20T02:51:00.310Z,1002.59
2017-03-20T02:51:40.784Z,1002.52
2017-03-20T02:52:21.311Z,1002.54
2017-03-20T02:53:01.784Z,1002.52
2017-03-20T02:53:42.254Z,1002.55
2017-03-20T02:54:22.742Z,1002.53
2017-03-20T02:55:03.296Z,1002.5
2017-03-20T02:55:43.769Z,1002.49
2017-03-20T02:56:24.248Z,1002.47
2017-03-20T02:57:04.740Z,1002.48
2017-03-20T02:57:45.253Z,1002.46
2017-03-20T02:58:25.768Z,1002.42
2017-03-20T02:59:06.249Z,1002.44
2017-03-20T02:59:46.735Z,1002.4
2017-03-20T03:00:27.263Z,1002.37
2017-03-20T03:01:07.721Z,1002.36
2017-03-20T03:01:48.228Z,1002.39
2017-03-20T03:02:28.721Z,1002.44
2017-03-20T03:03:09.209Z,1002.46
2017-03-20T03:03:49.685Z,1002.5
2017-03-20T03:04:30.171Z,1002.44
2017-03-20T03:05:10.659Z,1002.49
2017-03-20T03:05:51.190Z,1002.4
2017-03-20T03:06:31.668Z,1002.4
2017-03-20T03:07:12.217Z,1002.45
2017-03-20T03:07:52.685Z,1002.43
2017-03-20T03:08:33.171Z,1002.45
2017-03-20T03:09:13.669Z,1002.52
2017-03-20T03:09:54.116Z,1002.41
2017-03-20T03:10:34.632Z,1002.4
2017-03-20T03:11:15.153Z,1002.4
2017-03-20T03:11:55.659Z,1002.39
2017-03-20T03:12:36.171Z,1002.37
2017-03-20T03:13:16.643Z,1002.35
2017-03-20T03:13:57.123Z,1002.33
2017-03-20T03:14:37.618Z,1002.37
2017-03-20T03:15:18.152Z,1002.34
2017-03-20T03:15:58.628Z,1002.37
2017-03-20T03:16:39.124Z,1002.35
2017-03-20T03:17:19.613Z,1002.37
2017-03-20T03:18:00.090Z,1002.33
2017-03-20T03:18:40.606Z,1002.33
2017-03-20T03:19:21.101Z,1002.34
2017-03-20T03:20:01.575Z,1002.36
2017-03-20T03:20:42.080Z,1002.42
2017-03-20T03:21:22.578Z,1002.44
2017-03-20T03:22:03.077Z,1002.38
2017-03-20T03:22:43.595Z,1002.4
2017-03-20T03:23:24.114Z,1002.37
2017-03-20T03:24:04.611Z,1002.39
2017-03-20T03:24:45.075Z,1002.38
2017-03-20T03:25:25.610Z,1002.38
2017-03-20T03:26:06.118Z,1002.39
2017-03-20T03:26:46.573Z,1002.35
2017-03-20T03:27:27.063Z,1002.34
2017-03-20T03:28:07.541Z,1002.33
2017-03-20T03:28:48.057Z,1002.37
2017-03-20T03:29:28.531Z,1002.3
2017-03-20T03:30:08.997Z,1002.33
2017-03-20T03:30:49.506Z,1002.34
2017-03-20T03:31:29.992Z,1002.36
2017-03-20T03:32:10.524Z,1002.29
2017-03-20T03:32:51.007Z,1002.34
2017-03-20T03:33:31.496Z,1002.36
2017-03-20T03:34:11.964Z,1002.37
2017-03-20T03:34:52.493Z,1002.37
2017-03-20T03:35:32.974Z,1002.4
2017-03-20T03:36:13.479Z,1002.37
2017-03-20T03:36:53.945Z,1002.39
2017-03-20T03:37:34.419Z,1002.39
2017-03-20T03:38:14.953Z,1002.37
2017-03-20T03:38:55.427Z,1002.34
2017-03-20T03:39:35.919Z,1002.37
2017-03-20T03:40:16.377Z,1002.39
2017-03-20T03:40:56.863Z,1002.42
2017-03-20T03:41:37.378Z,1002.39
2017-03-20T03:42:17.913Z,1002.43
2017-03-20T03:42:58.445Z,1002.46
2017-03-20T03:43:38.945Z,1002.5
2017-03-20T03:44:19.460Z,1002.49
2017-03-20T03:44:59.945Z,1002.51
2017-03-20T03:45:40.409Z,1002.49
2017-03-20T03:46:20.938Z,1002.49
2017-03-20T03:47:01.423Z,1002.52
2017-03-20T03:47:41.926Z,1002.5
2017-03-20T03:48:22.385Z,1002.49
2017-03-20T03:49:02.905Z,1002.46
2017-03-20T03:49:43.378Z,1002.42
2017-03-20T03:50:23.922Z,1002.36
2017-03-20T03:51:04.398Z,1002.37
2017-03-20T03:51:44.873Z,1002.43
2017-03-20T03:52:25.363Z,1002.46
2017-03-20T03:53:05.869Z,1002.46
2017-03-20T03:53:46.351Z,1002.5
2017-03-20T03:54:26.828Z,1002.52
2017-03-20T03:55:07.299Z,1002.51
2017-03-20T03:55:47.764Z,1002.54
2017-03-20T03:56:28.255Z,1002.53
2017-03-20T03:57:08.731Z,1002.53
2017-03-20T03:57:49.215Z,1002.51
2017-03-20T03:58:29.722Z,1002.55
2017-03-20T03:59:10.203Z,1002.54
2017-03-20T03:59:50.720Z,1002.57
2017-03-20T04:00:31.197Z,1002.53
2017-03-20T04:01:11.696Z,1002.56
2017-03-20T04:01:52.222Z,1002.55
2017-03-20T04:02:32.827Z,1002.54
2017-03-20T04:03:13.302Z,1002.56
2017-03-20T04:03:53.789Z,1002.51
2017-03-20T04:04:34.281Z,1002.48
2017-03-20T04:05:14.771Z,1002.52
2017-03-20T04:05:55.281Z,1002.53
2017-03-20T04:06:35.730Z,1002.55
2017-03-20T04:07:16.227Z,1002.62
2017-03-20T04:07:56.699Z,1002.6
2017-03-20T04:08:37.183Z,1002.68
2017-03-20T04:09:17.711Z,1002.64
2017-03-20T04:09:58.197Z,1002.68
2017-03-20T04:10:38.683Z,1002.67
2017-03-20T04:11:19.180Z,1002.67
2017-03-20T04:11:59.678Z,1002.63
2017-03-20T04:12:40.161Z,1002.67
2017-03-20T04:13:20.659Z,1002.68
2017-03-20T04:14:01.138Z,1002.69
2017-03-20T04:14:41.625Z,1002.72
2017-03-20T04:15:22.096Z,1002.76
2017-03-20T04:16:02.549Z,1002.71
2017-03-20T04:16:43.037Z,1002.73
2017-03-20T04:17:23.573Z,1002.78
2017-03-20T04:18:04.036Z,1002.8
2017-03-20T04:18:44.520Z,1002.78
2017-03-20T04:19:25.027Z,1002.87
2017-03-20T04:20:05.500Z,1002.87
2017-03-20T04:20:45.956Z,1002.89
2017-03-20T04:21:26.465Z,1002.96
2017-03-20T04:22:06.953Z,1002.92
2017-03-20T04:22:47.438Z,1002.95
2017-03-20T04:23:27.918Z,1002.97
2017-03-20T04:24:08.408Z,1002.97
2017-03-20T04:24:48.909Z,1002.96
2017-03-20T04:25:29.439Z,1002.97
2017-03-20T04:26:09.942Z,1002.99
2017-03-20T04:26:50.443Z,1002.96
2017-03-20T04:27:30.931Z,1003.01
2017-03-20T04:28:11.421Z,1003.02
2017-03-20T04:28:51.919Z,1003.01
2017-03-20T04:29:32.427Z,1002.99
2017-03-20T04:30:12.887Z,1002.95
2017-03-20T04:30:53.367Z,1002.92
2017-03-20T04:31:33.849Z,1002.93
2017-03-20T04:32:14.387Z,1002.94
2017-03-20T04:32:54.880Z,1002.97
2017-03-20T04:33:35.350Z,1002.99
2017-03-20T04:34:15.910Z,1002.98
2017-03-20T04:34:56.409Z,1003.01
2017-03-20T04:35:36.874Z,1003.05
2017-03-20T04:36:17.386Z,1003
2017-03-20T04:36:57.844Z,1003.02
2017-03-20T04:37:38.321Z,1003
2017-03-20T04:38:18.820Z,1002.92
2017-03-20T04:38:59.284Z,1002.95
2017-03-20T04:39:39.790Z,1002.94
2017-03-20T04:40:20.281Z,1002.94
2017-03-20T04:41:00.810Z,1002.96
2017-03-20T04:41:41.305Z,1002.94
2017-03-20T04:42:21.784Z,1002.93
2017-03-20T04:43:02.251Z,1002.95
2017-03-20T04:43:42.754Z,1002.97
2017-03-20T04:44:23.262Z,1002.95
2017-03-20T04:45:03.728Z,1002.87
2017-03-20T04:45:44.206Z,1002.94
2017-03-20T04:46:24.699Z,1002.96
2017-03-20T04:47:05.223Z,1002.94
2017-03-20T04:47:45.713Z,1002.92
2017-03-20T04:48:26.198Z,1002.85
2017-03-20T04:49:06.730Z,1002.84
2017-03-20T04:49:47.223Z,1002.87
2017-03-20T04:50:27.692Z,1002.86
2017-03-20T04:51:08.153Z,1002.86
2017-03-20T04:51:48.685Z,1002.88
2017-03-20T04:52:29.143Z,1002.87
2017-03-20T04:53:09.623Z,1002.93
2017-03-20T04:53:50.107Z,1002.91
2017-03-20T04:54:30.630Z,1002.9
2017-03-20T04:55:11.128Z,1002.93
2017-03-20T04:55:51.614Z,1002.95
2017-03-20T04:56:32.107Z,1002.92
2017-03-20T04:57:12.582Z,1002.94
2017-03-20T04:57:53.091Z,1002.9
2017-03-20T04:58:33.588Z,1002.87
2017-03-20T04:59:14.093Z,1002.87
2017-03-20T04:59:54.601Z,1002.84
2017-03-20T05:00:35.107Z,1002.78
2017-03-20T05:01:15.638Z,1002.77
2017-03-20T05:01:56.168Z,1002.72
2017-03-20T05:02:36.672Z,1002.72
2017-03-20T05:03:17.180Z,1002.7
2017-03-20T05:03:57.654Z,1002.72
2017-03-20T05:04:38.147Z,1002.68
2017-03-20T05:05:18.649Z,1002.68
2017-03-20T05:05:59.144Z,1002.69
2017-03-20T05:06:39.604Z,1002.7
2017-03-20T05:07:20.072Z,1002.68
2017-03-20T05:08:00.621Z,1002.72
2017-03-20T05:08:41.084Z,1002.65
2017-03-20T05:09:21.585Z,1002.66
2017-03-20T05:10:02.030Z,1002.66
2017-03-20T05:10:42.523Z,1002.66
2017-03-20T05:11:23.069Z,1002.67
2017-03-20T05:12:03.572Z,1002.72
2017-03-20T05:12:44.089Z,1002.72
2017-03-20T05:13:24.589Z,1002.76
2017-03-20T05:14:05.126Z,1002.76
2017-03-20T05:14:45.637Z,1002.73
2017-03-20T05:15:26.178Z,1002.73
2017-03-20T05:16:06.667Z,1002.74
2017-03-20T05:16:47.175Z,1002.75
2017-03-20T05:17:28.286Z,1002.75
2017-03-20T05:18:08.814Z,1002.74
2017-03-20T05:18:49.378Z,1002.75
2017-03-20T05:19:30.079Z,1002.75
2017-03-20T05:20:10.697Z,1002.7
2017-03-20T05:20:51.216Z,1002.72
2017-03-20T05:21:31.775Z,1002.74
2017-03-20T05:22:18.918Z,1002.69
2017-03-20T05:22:59.457Z,1002.73
2017-03-20T05:23:40.012Z,1002.75
2017-03-20T05:24:20.491Z,1002.71
2017-03-20T05:25:01.013Z,1002.71
2017-03-20T05:25:41.455Z,1002.66
2017-03-20T05:26:21.955Z,1002.69
2017-03-20T05:27:02.428Z,1002.69
2017-03-20T05:27:42.965Z,1002.74
2017-03-20T05:28:23.435Z,1002.74
2017-03-20T05:29:03.897Z,1002.7
2017-03-20T05:29:44.411Z,1002.75
2017-03-20T05:30:24.888Z,1002.73
2017-03-20T05:31:05.360Z,1002.75
2017-03-20T05:31:45.883Z,1002.75
2017-03-20T05:32:26.429Z,1002.78
2017-03-20T05:33:06.862Z,1002.79
2017-03-20T05:33:47.385Z,1002.78
2017-03-20T05:34:27.851Z,1002.81
2017-03-20T05:35:08.351Z,1002.79
2017-03-20T05:35:48.840Z,1002.8
2017-03-20T05:36:29.357Z,1002.79
2017-03-20T05:37:09.836Z,1002.83
2017-03-20T05:37:50.316Z,1002.78
2017-03-20T05:38:30.889Z,1002.79
2017-03-20T05:39:11.395Z,1002.73
2017-03-20T05:39:51.884Z,1002.74
2017-03-20T05:40:32.415Z,1002.73
2017-03-20T05:41:12.892Z,1002.74
2017-03-20T05:41:53.374Z,1002.72
2017-03-20T05:42:33.868Z,1002.8
2017-03-20T05:43:14.330Z,1002.78
2017-03-20T05:43:54.789Z,1002.76
2017-03-20T05:44:35.266Z,1002.76
2017-03-20T05:45:15.756Z,1002.79
2017-03-20T05:45:56.226Z,1002.78
2017-03-20T05:46:36.738Z,1002.74
2017-03-20T05:47:17.250Z,1002.83
2017-03-20T05:47:57.686Z,1002.79
2017-03-20T05:48:38.165Z,1002.82
2017-03-20T05:49:18.651Z,1002.79
2017-03-20T05:49:59.143Z,1002.77
2017-03-20T05:50:39.638Z,1002.73
2017-03-20T05:51:20.109Z,1002.73
2017-03-20T05:52:00.643Z,1002.76
2017-03-20T05:52:41.169Z,1002.81
2017-03-20T05:53:21.623Z,1002.8
2017-03-20T05:54:02.114Z,1002.83
2017-03-20T05:54:42.605Z,1002.8
2017-03-20T05:55:23.090Z,1002.85
2017-03-20T05:56:03.586Z,1002.88
2017-03-20T05:56:44.052Z,1002.9
2017-03-20T05:57:24.565Z,1002.91
2017-03-20T05:58:05.051Z,1002.95
2017-03-20T05:58:45.547Z,1002.99
2017-03-20T05:59:26.033Z,1002.97
2017-03-20T06:00:06.530Z,1002.94
2017-03-20T06:00:47.018Z,1003.01
2017-03-20T06:01:27.531Z,1003.02
2017-03-20T06:02:08.017Z,1002.99
2017-03-20T06:02:48.525Z,1003.01
2017-03-20T06:03:29.044Z,1002.99
2017-03-20T06:04:09.524Z,1002.98
2017-03-20T06:04:49.996Z,1002.95
2017-03-20T06:05:30.509Z,1002.96
2017-03-20T06:06:10.999Z,1002.98
2017-03-20T06:06:51.486Z,1003
2017-03-20T06:07:31.986Z,1003.01
2017-03-20T06:08:12.487Z,1002.99
2017-03-20T06:08:53.426Z,1003.03
2017-03-20T06:09:34.277Z,1003.03
2017-03-20T06:10:14.734Z,1003.03
2017-03-20T06:10:55.254Z,1003.05
2017-03-20T06:11:35.740Z,1003.11
2017-03-20T06:12:16.243Z,1003.1
2017-03-20T06:12:56.718Z,1003.08
2017-03-20T06:13:37.204Z,1003.09
2017-03-20T06:14:17.669Z,1003.12
2017-03-20T06:14:58.304Z,1003.11
2017-03-20T06:15:38.762Z,1003.14
2017-03-20T06:16:19.418Z,1003.11
2017-03-20T06:16:59.881Z,1003.17
2017-03-20T06:17:40.379Z,1003.14
2017-03-20T06:18:20.872Z,1003.18
2017-03-20T06:19:01.366Z,1003.18
2017-03-20T06:19:41.860Z,1003.18
2017-03-20T06:20:22.385Z,1003.18
2017-03-20T06:21:02.867Z,1003.21
2017-03-20T06:21:43.349Z,1003.23
2017-03-20T06:22:23.876Z,1003.22
2017-03-20T06:23:04.383Z,1003.2
2017-03-20T06:23:44.882Z,1003.19
2017-03-20T06:24:25.363Z,1003.22
2017-03-20T06:25:05.845Z,1003.22
2017-03-20T06:25:46.416Z,1003.22
2017-03-20T06:28:05.706Z,1003.15
2017-03-20T06:28:46.172Z,1003.18
2017-03-20T06:29:26.691Z,1003.16
2017-03-20T06:30:07.163Z,1003.13
2017-03-20T06:30:47.680Z,1003.13
2017-03-20T06:31:28.158Z,1003.14
2017-03-20T06:32:08.672Z,1003.11
2017-03-20T06:32:49.119Z,1003.11
2017-03-20T06:33:29.643Z,1003.09
2017-03-20T06:34:10.105Z,1003.02
2017-03-20T06:34:50.589Z,1003.02
2017-03-20T06:35:31.063Z,1002.97
2017-03-20T06:36:11.601Z,1002.99
2017-03-20T06:36:52.048Z,1002.99
2017-03-20T06:37:32.557Z,1002.95
2017-03-20T06:38:13.051Z,1002.88
2017-03-20T06:38:53.518Z,1002.9
2017-03-20T06:39:33.983Z,1002.91
2017-03-20T06:40:14.483Z,1002.87
2017-03-20T06:40:54.978Z,1002.87
2017-03-20T06:41:35.494Z,1002.88
2017-03-20T06:42:15.995Z,1002.88
2017-03-20T06:42:56.482Z,1002.92
2017-03-20T06:43:37.015Z,1002.93
2017-03-20T06:44:17.510Z,1002.92
2017-03-20T06:44:58.034Z,1002.97
2017-03-20T06:45:39.311Z,1002.98
2017-03-20T06:46:19.826Z,1002.99
2017-03-20T06:47:00.321Z,1003.05
2017-03-20T06:47:40.731Z,1003.02
2017-03-20T06:48:21.232Z,1002.99
2017-03-20T06:49:01.740Z,1003
2017-03-20T06:49:42.200Z,1003
2017-03-20T06:50:22.840Z,1002.97
2017-03-20T06:51:03.147Z,1002.96
2017-03-20T06:51:43.629Z,1002.95
2017-03-20T06:52:24.085Z,1002.99
2017-03-20T06:53:04.563Z,1002.91
2017-03-20T06:53:45.058Z,1002.92
2017-03-20T06:54:25.572Z,1002.95
2017-03-20T06:55:06.031Z,1002.93
2017-03-20T06:55:46.521Z,1002.91
2017-03-20T06:56:27.009Z,1002.93
2017-03-20T06:57:07.543Z,1002.91
2017-03-20T06:57:48.019Z,1002.86
2017-03-20T06:58:28.503Z,1002.92
2017-03-20T06:59:08.975Z,1002.94
2017-03-20T06:59:49.464Z,1002.92
2017-03-20T07:00:29.951Z,1002.87
2017-03-20T07:01:11.036Z,1002.89
2017-03-20T07:01:51.533Z,1002.88
2017-03-20T07:02:32.628Z,1002.85
2017-03-20T07:03:13.100Z,1002.87
2017-03-20T07:03:53.577Z,1002.86
2017-03-20T07:04:34.074Z,1002.87
2017-03-20T07:05:14.562Z,1002.9
2017-03-20T07:05:55.007Z,1002.9
2017-03-20T07:06:35.487Z,1002.91
2017-03-20T07:07:16.012Z,1002.9
2017-03-20T07:07:56.521Z,1002.87
2017-03-20T07:08:36.992Z,1002.85
2017-03-20T07:09:17.529Z,1002.88
2017-03-20T07:09:58.110Z,1002.88
2017-03-20T07:10:38.655Z,1002.89
2017-03-20T07:11:19.174Z,1002.85
2017-03-20T07:11:59.697Z,1002.87
2017-03-20T07:12:40.198Z,1002.9
2017-03-20T07:13:20.699Z,1002.85
2017-03-20T07:14:01.311Z,1002.88
2017-03-20T07:14:41.805Z,1002.9
2017-03-20T07:15:22.294Z,1002.92
2017-03-20T07:16:02.753Z,1002.9
2017-03-20T07:16:43.286Z,1002.92
2017-03-20T07:17:23.751Z,1002.91
2017-03-20T07:18:04.283Z,1002.88
2017-03-20T07:18:44.737Z,1002.96
2017-03-20T07:19:25.205Z,1002.94
2017-03-20T07:20:05.763Z,1002.92
2017-03-20T07:20:46.297Z,1002.91
2017-03-20T07:21:26.810Z,1002.92
2017-03-20T07:22:07.279Z,1002.93
2017-03-20T07:22:47.782Z,1002.91
2017-03-20T07:23:28.357Z,1002.95
2017-03-20T07:24:08.865Z,1002.93
2017-03-20T07:24:49.360Z,1002.92
2017-03-20T07:25:29.875Z,1002.9
2017-03-20T07:26:10.385Z,1002.9
2017-03-20T07:26:50.829Z,1002.94
2017-03-20T07:27:31.339Z,1002.95
2017-03-20T07:28:11.931Z,1002.94
2017-03-20T07:28:52.404Z,1002.94
2017-03-20T07:29:32.926Z,1002.91
2017-03-20T07:30:13.360Z,1002.93
2017-03-20T07:30:53.877Z,1002.92
2017-03-20T07:31:34.375Z,1002.92
2017-03-20T07:32:14.873Z,1002.9
2017-03-20T07:32:55.350Z,1002.92
2017-03-20T07:33:35.828Z,1002.92
2017-03-20T07:34:16.307Z,1002.87
2017-03-20T07:34:56.761Z,1002.92
2017-03-20T07:35:37.306Z,1002.9
2017-03-20T07:36:17.842Z,1002.9
2017-03-20T07:36:58.361Z,1002.89
2017-03-20T07:37:38.834Z,1002.89
2017-03-20T07:38:19.333Z,1002.89
2017-03-20T07:38:59.796Z,1002.87
2017-03-20T07:39:40.279Z,1002.89
2017-03-20T07:40:20.734Z,1002.88
2017-03-20T07:41:01.238Z,1002.84
2017-03-20T07:41:41.739Z,1002.87
2017-03-20T07:42:22.196Z,1002.88
2017-03-20T07:43:02.660Z,1002.9
2017-03-20T07:43:43.126Z,1002.88
2017-03-20T07:44:23.612Z,1002.86
2017-03-20T07:45:04.076Z,1002.82
2017-03-20T07:45:44.592Z,1002.78
2017-03-20T07:46:25.149Z,1002.78
2017-03-20T07:47:05.613Z,1002.78
2017-03-20T07:47:46.143Z,1002.81
2017-03-20T07:48:26.804Z,1002.77
2017-03-20T07:49:07.378Z,1002.79
2017-03-20T07:49:48.452Z,1002.8
2017-03-20T07:50:30.607Z,1002.79
2017-03-20T07:51:11.114Z,1002.83
2017-03-20T07:51:51.596Z,1002.87
2017-03-20T07:52:32.091Z,1002.84
2017-03-20T07:53:12.843Z,1002.85
2017-03-20T07:53:53.342Z,1002.87
2017-03-20T07:54:33.907Z,1002.8
2017-03-20T07:55:14.419Z,1002.8
2017-03-20T07:55:54.905Z,1002.77
2017-03-20T07:56:35.381Z,1002.75
2017-03-20T07:57:15.869Z,1002.68
2017-03-20T07:57:56.354Z,1002.66
2017-03-20T07:58:36.841Z,1002.69
2017-03-20T07:59:17.355Z,1002.67
2017-03-20T07:59:57.839Z,1002.66
2017-03-20T08:00:38.359Z,1002.68
2017-03-20T08:01:18.869Z,1002.62
2017-03-20T08:01:59.407Z,1002.66
2017-03-20T08:05:55.059Z,1002.63
2017-03-20T08:06:38.500Z,1002.62
2017-03-20T08:07:19.590Z,1002.62
2017-03-20T08:08:00.092Z,1002.57
2017-03-20T08:08:42.290Z,1002.57
2017-03-20T08:09:22.794Z,1002.59
2017-03-20T08:10:03.302Z,1002.61
2017-03-20T08:10:43.846Z,1002.57
2017-03-20T08:11:24.301Z,1002.56
2017-03-20T08:12:04.760Z,1002.57
2017-03-20T08:12:45.308Z,1002.57
2017-03-20T08:13:25.832Z,1002.6
2017-03-20T08:14:06.303Z,1002.6
2017-03-20T08:14:46.785Z,1002.61
2017-03-20T08:15:27.345Z,1002.63
2017-03-20T08:16:08.339Z,1002.66
2017-03-20T08:16:48.842Z,1002.67
2017-03-20T08:17:29.709Z,1002.63
2017-03-20T08:18:10.225Z,1002.62